createdAt,value
2023-04-03T00:01:19.869Z,97662.94
2023-04-03T00:03:47.868Z,97657.94
2023-04-03T00:06:15.419Z,97655.03
2023-04-03T00:08:42.799Z,97659.69
2023-04-03T00:11:11.220Z,97661.56
2023-04-03T00:13:39.985Z,97663.63
2023-04-03T00:16:09.729Z,97654.81
2023-04-03T00:18:38.140Z,97660.25
2023-04-03T00:21:07.406Z,97658.56
2023-04-03T00:23:34.849Z,97662.81
2023-04-03T00:26:02.197Z,97665.00
2023-04-03T00:28:29.574Z,97661.13
2023-04-03T00:30:56.846Z,97660.41
2023-04-03T00:33:25.597Z,97671.81
2023-04-03T00:35:53.020Z,97667.69
2023-04-03T00:38:20.697Z,97665.78
2023-04-03T00:40:50.766Z,97664.34
2023-04-03T00:43:25.682Z,97667.09
2023-04-03T00:45:56.676Z,97668.19
2023-04-03T00:48:37.541Z,97673.63
2023-04-03T00:51:07.007Z,97676.03
2023-04-03T00:53:42.731Z,97677.69
2023-04-03T00:56:15.688Z,97677.34
2023-04-03T00:59:06.980Z,97671.75
2023-04-03T01:01:35.491Z,97668.19
2023-04-03T01:04:04.734Z,97674.94
2023-04-03T01:06:37.430Z,97679.25
2023-04-03T01:09:08.110Z,97685.53
2023-04-03T01:11:35.535Z,97681.94
2023-04-03T01:14:03.480Z,97679.47
2023-04-03T01:16:33.038Z,97679.97
2023-04-03T01:19:02.391Z,97682.22
2023-04-03T01:21:49.031Z,97672.88
2023-04-03T01:24:37.439Z,97678.78
2023-04-03T01:27:10.574Z,97675.00
2023-04-03T01:29:38.854Z,97674.78
2023-04-03T01:32:06.529Z,97678.44
2023-04-03T01:34:34.042Z,97688.59
2023-04-03T01:37:02.125Z,97695.56
2023-04-03T01:39:29.333Z,97693.78
2023-04-03T01:41:57.030Z,97688.28
2023-04-03T01:44:30.518Z,97684.78
2023-04-03T01:46:58.000Z,97687.50
2023-04-03T01:49:27.081Z,97687.97
2023-04-03T01:51:54.390Z,97691.09
2023-04-03T01:54:21.675Z,97686.69
2023-04-03T01:56:49.000Z,97693.53
2023-04-03T01:59:18.140Z,97688.38
2023-04-03T02:01:46.309Z,97695.41
2023-04-03T02:04:14.245Z,97689.16
2023-04-03T02:06:42.298Z,97695.66
2023-04-03T02:09:09.767Z,97698.56
2023-04-03T02:11:36.940Z,97699.00
2023-04-03T02:14:04.983Z,97696.31
2023-04-03T02:16:32.217Z,97704.41
2023-04-03T02:18:59.804Z,97697.81
2023-04-03T02:21:27.273Z,97697.50
2023-04-03T02:23:54.668Z,97707.56
2023-04-03T02:26:22.194Z,97700.31
2023-04-03T02:28:49.460Z,97704.47
2023-04-03T02:31:16.889Z,97699.25
2023-04-03T02:33:46.655Z,97704.75
2023-04-03T02:36:15.923Z,97701.22
2023-04-03T02:38:46.876Z,97699.03
2023-04-03T02:41:14.844Z,97699.44
2023-04-03T02:43:42.206Z,97697.97
2023-04-03T02:46:09.699Z,97699.00
2023-04-03T02:48:38.086Z,97695.41
2023-04-03T02:51:05.639Z,97702.31
2023-04-03T02:53:33.161Z,97714.63
2023-04-03T02:56:06.531Z,97710.72
2023-04-03T02:58:33.930Z,97712.16
2023-04-03T03:01:02.551Z,97706.50
2023-04-03T03:03:29.824Z,97713.91
2023-04-03T03:06:13.676Z,97721.19
2023-04-03T03:08:42.031Z,97712.44
2023-04-03T03:11:09.840Z,97716.38
2023-04-03T03:13:37.893Z,97719.41
2023-04-03T03:16:05.649Z,97720.97
2023-04-03T03:18:33.407Z,97724.53
2023-04-03T03:21:04.136Z,97717.75
2023-04-03T03:23:33.966Z,97714.56
2023-04-03T03:26:09.112Z,97726.19
2023-04-03T03:28:37.963Z,97718.13
2023-04-03T03:31:07.357Z,97726.41
2023-04-03T03:33:36.490Z,97726.00
2023-04-03T03:36:04.053Z,97728.91
2023-04-03T03:38:31.764Z,97723.63
2023-04-03T03:41:00.780Z,97722.00
2023-04-03T03:43:29.356Z,97730.16
2023-04-03T03:45:57.145Z,97726.13
2023-04-03T03:48:25.842Z,97723.09
2023-04-03T03:50:53.250Z,97728.56
2023-04-03T03:53:24.644Z,97728.66
2023-04-03T03:55:54.954Z,97729.75
2023-04-03T03:58:25.304Z,97731.88
2023-04-03T04:00:52.955Z,97728.56
2023-04-03T04:03:20.534Z,97725.34
2023-04-03T04:05:49.543Z,97736.00
2023-04-03T04:08:17.357Z,97734.97
2023-04-03T04:10:46.184Z,97732.03
2023-04-03T04:13:15.814Z,97732.38
2023-04-03T04:15:44.717Z,97735.59
2023-04-03T04:18:12.278Z,97737.44
2023-04-03T04:20:42.528Z,97734.34
2023-04-03T04:23:10.012Z,97746.41
2023-04-03T04:25:38.510Z,97741.63
2023-04-03T04:28:07.191Z,97744.75
2023-04-03T04:30:35.283Z,97745.03
2023-04-03T04:33:03.439Z,97742.59
2023-04-03T04:35:33.031Z,97756.03
2023-04-03T04:38:01.020Z,97753.63
2023-04-03T04:40:28.485Z,97758.69
2023-04-03T04:42:56.820Z,97767.97
2023-04-03T04:45:24.406Z,97764.41
2023-04-03T04:47:53.404Z,97766.34
2023-04-03T04:50:21.398Z,97770.75
2023-04-03T04:52:48.849Z,97766.88
2023-04-03T04:55:16.640Z,97766.56
2023-04-03T04:57:43.970Z,97776.59
2023-04-03T05:00:12.190Z,97777.22
2023-04-03T05:02:39.690Z,97785.78
2023-04-03T05:05:07.857Z,97782.59
2023-04-03T05:07:36.725Z,97783.69
2023-04-03T05:10:05.023Z,97793.50
2023-04-03T05:12:33.805Z,97796.50
2023-04-03T05:15:03.995Z,97796.50
2023-04-03T05:17:32.323Z,97805.13
2023-04-03T05:19:59.910Z,97802.56
2023-04-03T05:22:28.795Z,97808.19
2023-04-03T05:25:00.420Z,97800.63
2023-04-03T05:27:31.524Z,97814.69
2023-04-03T05:30:00.842Z,97814.09
2023-04-03T05:32:28.814Z,97814.47
2023-04-03T05:35:12.393Z,97815.28
2023-04-03T05:37:41.980Z,97815.47
2023-04-03T05:40:10.170Z,97816.69
2023-04-03T05:42:40.771Z,97830.72
2023-04-03T05:45:08.870Z,97829.06
2023-04-03T05:47:36.112Z,97832.25
2023-04-03T05:50:05.486Z,97837.34
2023-04-03T05:52:41.262Z,97835.94
2023-04-03T05:55:09.295Z,97836.31
2023-04-03T05:57:37.372Z,97832.91
2023-04-03T06:00:13.675Z,97831.31
2023-04-03T06:02:49.019Z,97830.28
2023-04-03T06:05:20.219Z,97840.75
2023-04-03T06:07:47.489Z,97839.34
2023-04-03T06:10:15.964Z,97846.13
2023-04-03T06:12:43.457Z,97852.72
2023-04-03T06:15:11.300Z,97855.34
2023-04-03T06:17:40.226Z,97851.41
2023-04-03T06:20:10.562Z,97854.59
2023-04-03T06:22:38.075Z,97861.22
2023-04-03T06:25:07.332Z,97863.03
2023-04-03T06:27:34.664Z,97852.41
2023-04-03T06:30:02.102Z,97855.44
2023-04-03T06:32:29.468Z,97856.00
2023-04-03T06:34:58.209Z,97866.44
2023-04-03T06:37:27.239Z,97871.28
2023-04-03T06:39:54.609Z,97863.06
2023-04-03T06:42:22.343Z,97874.47
2023-04-03T06:44:59.100Z,97874.47
2023-04-03T06:47:26.450Z,97865.63
2023-04-03T06:49:53.748Z,97875.06
2023-04-03T06:52:21.803Z,97882.47
2023-04-03T06:54:49.068Z,97873.88
2023-04-03T06:57:16.399Z,97878.28
2023-04-03T06:59:44.001Z,97888.31
2023-04-03T07:02:13.965Z,97881.31
2023-04-03T07:04:41.553Z,97882.91
2023-04-03T07:07:08.804Z,97894.38
2023-04-03T07:09:36.164Z,97888.13
2023-04-03T07:12:03.502Z,97895.34
2023-04-03T07:14:31.031Z,97897.94
2023-04-03T07:16:58.350Z,97893.53
2023-04-03T07:19:28.438Z,97898.56
2023-04-03T07:21:56.159Z,97903.16
2023-04-03T07:24:23.765Z,97911.81
2023-04-03T07:26:53.045Z,97912.81
2023-04-03T07:29:22.578Z,97918.22
2023-04-03T07:31:50.469Z,97923.44
2023-04-03T07:34:17.974Z,97913.59
2023-04-03T07:36:45.139Z,97922.63
2023-04-03T07:39:12.556Z,97924.56
2023-04-03T07:41:40.124Z,97927.75
2023-04-03T07:44:07.621Z,97928.34
2023-04-03T07:46:34.877Z,97931.69
2023-04-03T07:49:02.298Z,97929.28
2023-04-03T07:51:30.860Z,97927.09
2023-04-03T07:53:58.060Z,97934.22
2023-04-03T07:56:26.248Z,97934.34
2023-04-03T07:58:53.460Z,97929.97
2023-04-03T08:01:21.027Z,97924.06
2023-04-03T08:03:48.470Z,97920.50
2023-04-03T08:06:18.580Z,97929.63
2023-04-03T08:08:48.322Z,97928.38
2023-04-03T08:11:15.562Z,97928.13
2023-04-03T08:13:43.933Z,97931.47
2023-04-03T08:16:17.678Z,97934.34
2023-04-03T08:18:45.397Z,97941.94
2023-04-03T08:21:13.930Z,97943.78
2023-04-03T08:23:42.821Z,97943.50
2023-04-03T08:26:17.202Z,97948.53
2023-04-03T08:28:44.677Z,97954.44
2023-04-03T08:31:16.758Z,97953.16
2023-04-03T08:33:44.197Z,97950.59
2023-04-03T08:36:25.079Z,97954.63
2023-04-03T08:38:53.466Z,97959.25
2023-04-03T08:41:44.431Z,97966.09
2023-04-03T08:44:46.374Z,97960.75
2023-04-03T08:47:29.560Z,97962.91
2023-04-03T08:50:12.985Z,97971.09
2023-04-03T08:52:46.952Z,97977.00
2023-04-03T08:55:34.323Z,97961.50
2023-04-03T08:58:35.009Z,97958.38
2023-04-03T09:01:16.669Z,97972.53
2023-04-03T09:03:44.218Z,97965.91
2023-04-03T09:06:26.617Z,97961.59
2023-04-03T09:09:16.686Z,97963.13
2023-04-03T09:11:51.230Z,97968.50
2023-04-03T09:14:46.064Z,97974.81
2023-04-03T09:17:47.442Z,97954.09
2023-04-03T09:21:03.820Z,97961.16
2023-04-03T09:23:59.036Z,97956.28
2023-04-03T09:27:01.920Z,97945.03
2023-04-03T09:29:29.760Z,97937.94
2023-04-03T09:32:29.629Z,97951.47
2023-04-03T09:35:27.471Z,97946.50
2023-04-03T09:38:22.930Z,97954.66
2023-04-03T09:41:16.140Z,97948.50
2023-04-03T09:43:55.227Z,97948.38
2023-04-03T09:46:36.072Z,97957.47
2023-04-03T09:49:09.359Z,97954.25
2023-04-03T09:51:37.839Z,97961.44
2023-04-03T09:54:32.991Z,97972.25
2023-04-03T09:57:14.127Z,97992.00
2023-04-03T09:59:47.552Z,97993.44
2023-04-03T10:02:25.799Z,98004.84
2023-04-03T10:05:08.401Z,97999.28
2023-04-03T10:07:39.459Z,97983.28
2023-04-03T10:10:19.523Z,97999.44
2023-04-03T10:12:47.189Z,97982.81
2023-04-03T10:15:21.072Z,97993.06
2023-04-03T10:18:14.335Z,97984.44
2023-04-03T10:20:48.482Z,97981.81
2023-04-03T10:23:46.921Z,97988.81
2023-04-03T10:26:44.440Z,97981.31
2023-04-03T10:29:49.592Z,97979.56
2023-04-03T10:32:44.800Z,97985.63
2023-04-03T10:35:58.436Z,97977.88
2023-04-03T10:38:58.283Z,97985.94
2023-04-03T10:41:40.674Z,97992.91
2023-04-03T10:44:17.763Z,97975.84
2023-04-03T10:47:02.221Z,97980.28
2023-04-03T10:49:59.989Z,97977.69
2023-04-03T10:53:13.844Z,97970.31
2023-04-03T10:56:08.866Z,97977.16
2023-04-03T10:58:58.987Z,97965.06
2023-04-03T11:01:34.100Z,97969.22
2023-04-03T11:04:06.073Z,97963.94
2023-04-03T11:06:54.501Z,97961.41
2023-04-03T11:09:38.991Z,97954.50
2023-04-03T11:12:11.785Z,97957.31
2023-04-03T11:14:40.850Z,97953.25
2023-04-03T11:17:45.407Z,97956.56
2023-04-03T11:20:35.126Z,97952.72
2023-04-03T11:23:22.643Z,97952.91
2023-04-03T11:25:54.727Z,97961.09
2023-04-03T11:28:22.165Z,97956.34
2023-04-03T11:31:10.552Z,97963.66
2023-04-03T11:34:06.637Z,97953.94
2023-04-03T11:36:48.537Z,97947.88
2023-04-03T11:39:31.423Z,97956.50
2023-04-03T11:42:31.981Z,97957.13
2023-04-03T11:45:24.506Z,97959.16
2023-04-03T11:48:23.218Z,97955.47
2023-04-03T11:50:53.061Z,97953.63
2023-04-03T11:53:35.848Z,97941.66
2023-04-03T11:56:05.607Z,97938.59
2023-04-03T11:58:35.423Z,97938.50
2023-04-03T12:01:12.110Z,97936.75
2023-04-03T12:03:43.383Z,97944.53
2023-04-03T12:06:17.700Z,97939.97
2023-04-03T12:08:57.653Z,97935.28
2023-04-03T12:11:33.159Z,97935.19
2023-04-03T12:14:00.316Z,97926.84
2023-04-03T12:16:39.394Z,97931.13
2023-04-03T12:19:16.016Z,97929.50
2023-04-03T12:21:53.176Z,97932.28
2023-04-03T12:24:30.665Z,97918.41
2023-04-03T12:27:43.247Z,97921.88
2023-04-03T12:30:26.438Z,97907.00
2023-04-03T12:33:12.721Z,97915.91
2023-04-03T12:36:16.408Z,97917.84
2023-04-03T12:39:08.405Z,97930.59
2023-04-03T12:42:46.268Z,97915.00
2023-04-03T12:45:21.962Z,97910.59
2023-04-03T12:47:56.943Z,97902.19
2023-04-03T12:50:34.041Z,97912.13
2023-04-03T12:53:13.964Z,97916.78
2023-04-03T12:55:41.575Z,97913.19
2023-04-03T12:58:28.348Z,97913.06
2023-04-03T13:01:15.118Z,97907.22
2023-04-03T13:03:47.950Z,97915.38
2023-04-03T13:06:32.413Z,97913.38
2023-04-03T13:09:02.168Z,97901.47
2023-04-03T13:11:39.407Z,97903.00
2023-04-03T13:14:24.551Z,97904.53
2023-04-03T13:16:56.147Z,97905.22
2023-04-03T13:19:29.926Z,97896.38
2023-04-03T13:22:29.355Z,97905.41
2023-04-03T13:25:02.619Z,97912.09
2023-04-03T13:27:33.279Z,97901.16
2023-04-03T13:30:04.538Z,97899.38
2023-04-03T13:32:34.133Z,97893.22
2023-04-03T13:35:15.512Z,97900.03
2023-04-03T13:37:59.236Z,97899.41
2023-04-03T13:40:41.353Z,97905.59
2023-04-03T13:43:43.165Z,97896.63
2023-04-03T13:46:13.407Z,97890.22
2023-04-03T13:48:46.505Z,97883.03
2023-04-03T13:51:13.930Z,97891.88
2023-04-03T13:53:58.760Z,97888.78
2023-04-03T13:56:34.500Z,97890.47
2023-04-03T13:59:36.183Z,97890.53
2023-04-03T14:02:03.259Z,97891.44
2023-04-03T14:04:46.061Z,97890.44
2023-04-03T14:07:15.219Z,97885.34
2023-04-03T14:09:42.698Z,97871.63
2023-04-03T14:12:30.120Z,97880.84
2023-04-03T14:15:00.649Z,97885.31
2023-04-03T14:17:29.155Z,97885.19
2023-04-03T14:19:58.862Z,97879.66
2023-04-03T14:22:31.592Z,97876.56
2023-04-03T14:24:59.506Z,97874.81
2023-04-03T14:27:36.945Z,97877.94
2023-04-03T14:30:07.845Z,97874.16
2023-04-03T14:32:35.041Z,97885.69
2023-04-03T14:35:02.599Z,97878.31
2023-04-03T14:37:31.829Z,97884.84
2023-04-03T14:40:01.689Z,97872.97
2023-04-03T14:42:34.133Z,97881.47
2023-04-03T14:45:04.624Z,97877.94
2023-04-03T14:47:32.892Z,97872.44
2023-04-03T14:50:08.281Z,97882.47
2023-04-03T14:52:37.237Z,97881.22
2023-04-03T14:55:09.103Z,97877.00
2023-04-03T14:57:37.129Z,97879.19
2023-04-03T15:00:08.285Z,97886.38
2023-04-03T15:02:39.041Z,97873.56
2023-04-03T15:05:10.830Z,97884.38
2023-04-03T15:07:45.942Z,97889.41
2023-04-03T15:10:18.835Z,97888.44
2023-04-03T15:12:48.011Z,97883.66
2023-04-03T15:15:17.557Z,97884.13
2023-04-03T15:17:46.712Z,97893.78
2023-04-03T15:20:18.708Z,97890.06
2023-04-03T15:22:46.836Z,97878.19
2023-04-03T15:25:14.643Z,97877.72
2023-04-03T15:27:42.546Z,97877.94
2023-04-03T15:30:16.908Z,97882.34
2023-04-03T15:32:44.561Z,97877.81
2023-04-03T15:35:12.338Z,97883.44
2023-04-03T15:37:39.599Z,97881.16
2023-04-03T15:40:09.952Z,97881.06
2023-04-03T15:42:37.549Z,97877.84
2023-04-03T15:45:05.424Z,97884.50
2023-04-03T15:47:32.876Z,97891.41
2023-04-03T15:50:00.474Z,97890.06
2023-04-03T15:52:27.830Z,97892.47
2023-04-03T15:54:55.158Z,97890.53
2023-04-03T15:57:27.119Z,97893.22
2023-04-03T15:59:55.227Z,97896.72
2023-04-03T16:02:22.606Z,97898.66
2023-04-03T16:04:50.589Z,97889.44
2023-04-03T16:07:17.952Z,97888.69
2023-04-03T16:09:45.185Z,97896.88
2023-04-03T16:12:12.672Z,97895.31
2023-04-03T16:14:39.944Z,97897.06
2023-04-03T16:17:07.240Z,97899.06
2023-04-03T16:19:34.507Z,97895.38
2023-04-03T16:22:02.393Z,97899.97
2023-04-03T16:24:30.402Z,97895.00
2023-04-03T16:26:57.668Z,97908.78
2023-04-03T16:29:24.945Z,97902.38
2023-04-03T16:31:53.081Z,97894.31
2023-04-03T16:34:20.694Z,97898.81
2023-04-03T16:36:48.071Z,97901.38
2023-04-03T16:39:15.530Z,97903.91
2023-04-03T16:41:42.761Z,97902.47
2023-04-03T16:44:10.120Z,97905.03
2023-04-03T16:46:37.497Z,97900.97
2023-04-03T16:49:05.234Z,97905.72
2023-04-03T16:51:33.078Z,97903.88
2023-04-03T16:54:00.594Z,97909.47
2023-04-03T16:56:28.481Z,97903.25
2023-04-03T16:58:56.241Z,97905.72
2023-04-03T17:01:24.198Z,97916.97
2023-04-03T17:03:51.625Z,97921.31
2023-04-03T17:06:24.440Z,97924.91
2023-04-03T17:08:53.277Z,97923.56
2023-04-03T17:11:31.932Z,97923.75
2023-04-03T17:13:59.686Z,97926.88
2023-04-03T17:16:27.587Z,97927.13
2023-04-03T17:18:56.102Z,97930.41
2023-04-03T17:21:24.080Z,97934.25
2023-04-03T17:23:58.747Z,97942.44
2023-04-03T17:26:27.347Z,97939.59
2023-04-03T17:28:55.207Z,97949.09
2023-04-03T17:31:22.391Z,97951.28
2023-04-03T17:33:49.660Z,97948.28
2023-04-03T17:36:17.141Z,97947.31
2023-04-03T17:38:44.505Z,97955.56
2023-04-03T17:41:11.939Z,97958.38
2023-04-03T17:43:39.455Z,97963.66
2023-04-03T17:46:10.810Z,97959.88
2023-04-03T17:48:41.018Z,97958.28
2023-04-03T17:51:18.357Z,97957.13
2023-04-03T17:53:45.846Z,97962.75
2023-04-03T17:56:27.234Z,97970.78
2023-04-03T17:58:58.288Z,97976.41
2023-04-03T18:01:31.415Z,97971.38
2023-04-03T18:04:02.386Z,97967.94
2023-04-03T18:06:46.653Z,97971.34
2023-04-03T18:09:32.242Z,97976.16
2023-04-03T18:12:03.248Z,97986.00
2023-04-03T18:14:32.879Z,97976.75
2023-04-03T18:17:00.719Z,97970.13
2023-04-03T18:19:29.790Z,97980.59
2023-04-03T18:22:02.243Z,97980.78
2023-04-03T18:24:34.667Z,97981.00
2023-04-03T18:27:13.058Z,97983.63
2023-04-03T18:29:43.721Z,97989.66
2023-04-03T18:32:14.817Z,97984.44
2023-04-03T18:34:42.605Z,97995.66
2023-04-03T18:37:10.083Z,97996.03
2023-04-03T18:39:37.696Z,98000.25
2023-04-03T18:42:14.298Z,97999.69
2023-04-03T18:44:45.103Z,98000.09
2023-04-03T18:47:12.763Z,98004.31
2023-04-03T18:49:42.012Z,98003.28
2023-04-03T18:52:11.267Z,97998.06
2023-04-03T18:54:40.008Z,97989.81
2023-04-03T18:57:07.395Z,97999.06
2023-04-03T18:59:34.966Z,98000.84
2023-04-03T19:02:02.572Z,97993.03
2023-04-03T19:04:31.001Z,97996.28
2023-04-03T19:06:58.413Z,97994.47
2023-04-03T19:09:26.591Z,97989.22
2023-04-03T19:11:54.004Z,97982.41
2023-04-03T19:14:21.406Z,97980.63
2023-04-03T19:16:49.077Z,97988.47
2023-04-03T19:19:16.425Z,97991.09
2023-04-03T19:21:44.049Z,97987.06
2023-04-03T19:24:13.414Z,97996.50
2023-04-03T19:26:42.239Z,97993.69
2023-04-03T19:29:10.640Z,97997.09
2023-04-03T19:31:38.782Z,97998.53
2023-04-03T19:34:07.139Z,98000.31
2023-04-03T19:36:36.224Z,97995.47
2023-04-03T19:39:05.179Z,98005.94
2023-04-03T19:41:36.251Z,97999.31
2023-04-03T19:44:07.402Z,98001.34
2023-04-03T19:46:36.587Z,98002.09
2023-04-03T19:49:05.127Z,98002.50
2023-04-03T19:51:32.594Z,98002.72
2023-04-03T19:53:59.993Z,98004.13
2023-04-03T19:56:27.475Z,98006.38
2023-04-03T19:58:55.030Z,97997.91
2023-04-03T20:01:24.691Z,98002.56
2023-04-03T20:03:52.549Z,98002.56
2023-04-03T20:06:20.085Z,98006.75
2023-04-03T20:08:47.532Z,98004.31
2023-04-03T20:11:14.709Z,98001.72
2023-04-03T20:13:42.058Z,98007.34
2023-04-03T20:16:10.297Z,98003.94
2023-04-03T20:18:38.771Z,98000.72
2023-04-03T20:21:08.231Z,97998.72
2023-04-03T20:23:37.362Z,98006.94
2023-04-03T20:26:13.989Z,98010.97
2023-04-03T20:28:43.505Z,98006.97
2023-04-03T20:31:12.089Z,98011.59
2023-04-03T20:33:39.928Z,98015.59
2023-04-03T20:36:07.635Z,98017.00
2023-04-03T20:38:35.075Z,98014.59
2023-04-03T20:41:02.403Z,98014.41
2023-04-03T20:43:30.186Z,98018.22
2023-04-03T20:46:01.613Z,98023.84
2023-04-03T20:48:31.227Z,98023.44
2023-04-03T20:50:59.157Z,98027.66
2023-04-03T20:53:27.235Z,98024.03
2023-04-03T20:56:00.203Z,98022.63
2023-04-03T20:58:34.025Z,98021.63
2023-04-03T21:01:01.469Z,98023.03
2023-04-03T21:03:32.857Z,98021.41
2023-04-03T21:06:00.594Z,98023.84
2023-04-03T21:09:24.224Z,98025.84
2023-04-03T21:12:47.563Z,98032.06
2023-04-03T21:16:00.173Z,98023.63
2023-04-03T21:18:49.770Z,98026.25
2023-04-03T21:21:24.554Z,98025.44
2023-04-03T21:23:54.152Z,98026.03
2023-04-03T21:26:22.956Z,98019.59
2023-04-03T21:28:54.910Z,98018.41
2023-04-03T21:31:23.126Z,98029.47
2023-04-03T21:33:51.533Z,98019.44
2023-04-03T21:36:18.815Z,98028.47
2023-04-03T21:38:47.825Z,98018.41
2023-04-03T21:41:15.747Z,98023.44
2023-04-03T21:43:45.243Z,98022.63
2023-04-03T21:46:12.854Z,98022.66
2023-04-03T21:48:40.404Z,98019.03
2023-04-03T21:51:08.414Z,98016.41
2023-04-03T21:53:36.181Z,98012.59
2023-04-03T21:56:03.547Z,98011.59
2023-04-03T21:58:32.241Z,98004.94
2023-04-03T22:01:10.080Z,97996.31
2023-04-03T22:03:38.269Z,97994.91
2023-04-03T22:06:06.112Z,97981.88
2023-04-03T22:08:33.839Z,97977.25
2023-04-03T22:11:15.167Z,97982.06
2023-04-03T22:13:43.680Z,97970.63
2023-04-03T22:16:12.844Z,97970.00
2023-04-03T22:18:40.141Z,97962.56
2023-04-03T22:21:10.282Z,97957.75
2023-04-03T22:23:37.946Z,97955.69
2023-04-03T22:26:11.761Z,97964.75
2023-04-03T22:28:45.338Z,97951.09
2023-04-03T22:31:14.436Z,97956.13
2023-04-03T22:33:43.550Z,97950.72
2023-04-03T22:36:13.165Z,97958.34
2023-04-03T22:38:45.018Z,97952.75
2023-04-03T22:41:12.528Z,97946.50
2023-04-03T22:43:40.001Z,97948.69
2023-04-03T22:46:09.463Z,97944.00
2023-04-03T22:48:38.619Z,97935.97
2023-04-03T22:51:09.393Z,97934.44
2023-04-03T22:53:36.891Z,97933.22
2023-04-03T22:56:11.048Z,97929.41
2023-04-03T22:58:39.157Z,97923.38
2023-04-03T23:01:12.354Z,97922.34
2023-04-03T23:03:42.387Z,97922.53
2023-04-03T23:06:11.095Z,97918.69
2023-04-03T23:08:39.048Z,97927.75
2023-04-03T23:11:09.986Z,97913.09
2023-04-03T23:13:37.466Z,97918.25
2023-04-03T23:16:05.579Z,97920.69
2023-04-03T23:18:33.499Z,97918.00
2023-04-03T23:21:03.245Z,97914.81
2023-04-03T23:23:30.950Z,97915.94
2023-04-03T23:26:00.455Z,97909.09
2023-04-03T23:28:29.310Z,97907.25
2023-04-03T23:31:02.018Z,97907.88
2023-04-03T23:33:31.362Z,97893.94
2023-04-03T23:35:59.670Z,97893.94
2023-04-03T23:38:26.980Z,97894.41
2023-04-03T23:40:54.203Z,97888.28
2023-04-03T23:43:21.716Z,97889.59
2023-04-03T23:45:48.993Z,97885.53
2023-04-03T23:48:16.313Z,97882.53
2023-04-03T23:50:46.726Z,97885.38
2023-04-03T23:53:14.170Z,97877.53
2023-04-03T23:55:42.139Z,97879.44
2023-04-03T23:58:09.640Z,97880.91
